Time;durP1;ratioP1;P1;durP2;ratioP2;P2;SDS_P1;SDS_P2;PMS_P1;PMS_P2;Temp;Humidity;BMP_temperature;BMP_pressure;BME280_temperature;BME280_humidity;BME280_pressure;Samples;Min_cycle;Max_cycle;Signal;HPM_P1;HPM_P2
2023/03/16 00:02:18;;;;;;;4.70;2.25;;;1.10;99.90;;;;;;4954591;28;20142;-71
2023/03/16 00:04:46;;;;;;;9.88;2.65;;;1.20;99.90;;;;;;4986169;28;20050;-71
2023/03/16 00:07:12;;;;;;;8.48;2.38;;;1.20;99.90;;;;;;4984746;28;20070;-72
2023/03/16 00:09:39;;;;;;;7.85;2.13;;;1.20;99.90;;;;;;4951405;28;20463;-71
2023/03/16 00:12:08;;;;;;;7.70;2.45;;;1.20;99.90;;;;;;4967634;28;20047;-71
2023/03/16 00:14:34;;;;;;;10.35;2.17;;;1.10;99.90;;;;;;4954024;28;20054;-71
2023/03/16 00:17:00;;;;;;;6.03;2.05;;;1.10;99.90;;;;;;4965157;28;20082;-71
2023/03/16 00:19:27;;;;;;;9.13;2.47;;;1.20;99.90;;;;;;4967108;28;20104;-71
2023/03/16 00:21:52;;;;;;;5.68;2.15;;;1.20;99.90;;;;;;4941942;28;21034;-71
2023/03/16 00:24:18;;;;;;;6.85;2.03;;;1.20;99.90;;;;;;4957607;28;20054;-71
2023/03/16 00:26:45;;;;;;;9.43;2.30;;;1.20;99.90;;;;;;4966055;28;20062;-71
2023/03/16 00:29:11;;;;;;;6.25;2.25;;;1.20;99.90;;;;;;4968243;28;20046;-71
2023/03/16 00:31:38;;;;;;;6.95;1.80;;;1.20;99.90;;;;;;4936409;28;20387;-70
2023/03/16 00:34:04;;;;;;;9.73;1.70;;;1.20;99.90;;;;;;4965810;28;20387;-71
2023/03/16 00:36:32;;;;;;;8.15;2.47;;;1.20;99.90;;;;;;4968089;28;20049;-71
2023/03/16 00:38:59;;;;;;;6.32;2.00;;;1.30;99.90;;;;;;4964578;28;20341;-71
2023/03/16 00:41:25;;;;;;;7.03;2.08;;;1.30;99.90;;;;;;4971872;28;20053;-71
2023/03/16 00:43:52;;;;;;;6.70;2.28;;;1.30;99.90;;;;;;4972573;28;20046;-70
2023/03/16 00:46:18;;;;;;;8.13;2.08;;;1.30;99.90;;;;;;4979908;28;20038;-70
2023/03/16 00:48:45;;;;;;;7.00;1.77;;;1.30;99.90;;;;;;4962633;28;20062;-71
2023/03/16 00:51:13;;;;;;;4.43;1.88;;;1.30;99.90;;;;;;4989632;28;20041;-71
2023/03/16 00:53:39;;;;;;;;;;;1.20;99.90;;;;;;4963965;28;20043;-71
2023/03/16 00:56:05;;;;;;;8.82;2.42;;;1.20;99.90;;;;;;4983240;28;19925;-71
2023/03/16 00:58:35;;;;;;;7.82;2.20;;;1.20;99.90;;;;;;4969466;28;20047;-71
2023/03/16 01:01:05;;;;;;;9.43;2.30;;;1.20;99.90;;;;;;4948965;28;20050;-70
2023/03/16 01:03:31;;;;;;;7.47;2.30;;;1.30;99.90;;;;;;4964681;28;20062;-70
2023/03/16 01:05:58;;;;;;;8.20;1.58;;;1.30;99.90;;;;;;4953286;28;20046;-71
2023/03/16 01:08:26;;;;;;;4.25;1.83;;;1.30;99.90;;;;;;4953760;28;20179;-71
2023/03/16 01:10:53;;;;;;;8.80;1.67;;;1.30;99.90;;;;;;4984615;28;20365;-71
2023/03/16 01:13:20;;;;;;;7.18;2.08;;;1.20;99.90;;;;;;4963752;28;20375;-71
2023/03/16 01:15:47;;;;;;;5.40;2.13;;;1.20;99.90;;;;;;4957992;28;20034;-71
2023/03/16 01:18:14;;;;;;;6.70;1.88;;;1.20;99.90;;;;;;4984386;28;20050;-71
2023/03/16 01:20:42;;;;;;;6.72;1.90;;;1.10;99.90;;;;;;4986257;28;20062;-71
2023/03/16 01:23:08;;;;;;;4.88;1.90;;;1.10;99.90;;;;;;4974978;28;20050;-71
2023/03/16 01:25:33;;;;;;;5.43;1.80;;;1.10;99.90;;;;;;4974816;28;20124;-71
2023/03/16 01:28:00;;;;;;;6.78;1.60;;;1.00;99.90;;;;;;4962688;28;20117;-71
2023/03/16 01:30:26;;;;;;;6.18;1.60;;;1.00;99.90;;;;;;4943824;28;20046;-71
2023/03/16 01:32:52;;;;;;;5.18;1.67;;;1.00;99.90;;;;;;4956114;28;20038;-71
2023/03/16 01:35:20;;;;;;;5.43;1.50;;;1.10;99.90;;;;;;4963216;28;20121;-71
2023/03/16 01:37:46;;;;;;;8.52;1.80;;;1.10;99.90;;;;;;4970116;28;20513;-71
2023/03/16 01:40:12;;;;;;;7.20;1.52;;;1.10;99.90;;;;;;4941634;28;20117;-71
2023/03/16 01:42:48;;;;;;;6.53;1.73;;;1.00;99.90;;;;;;4968634;28;20129;-71
2023/03/16 01:45:53;;;;;;;6.35;1.60;;;1.00;99.90;;;;;;4969478;28;20100;-71
2023/03/16 01:48:20;;;;;;;5.47;1.67;;;1.10;99.90;;;;;;4977359;28;20129;-71
2023/03/16 01:50:46;;;;;;;9.50;1.50;;;1.00;99.90;;;;;;4944828;28;20647;-71
2023/03/16 01:53:12;;;;;;;10.65;1.70;;;1.10;99.90;;;;;;4962839;28;20361;-71
2023/03/16 01:55:38;;;;;;;7.25;1.80;;;1.10;99.90;;;;;;4954541;28;20073;-71
2023/03/16 01:58:03;;;;;;;5.43;1.73;;;1.00;99.90;;;;;;4970255;28;20053;-71
2023/03/16 02:00:31;;;;;;;6.45;1.40;;;1.10;99.90;;;;;;4947580;28;20138;-72
2023/03/16 02:02:59;;;;;;;8.55;2.08;;;1.00;99.90;;;;;;4983546;28;20049;-71
2023/03/16 02:05:36;;;;;;;5.18;1.50;;;1.00;99.90;;;;;;4947265;28;20054;-71
2023/03/16 02:08:02;;;;;;;10.63;1.50;;;1.10;99.90;;;;;;4963381;28;20056;-70
2023/03/16 02:10:28;;;;;;;7.22;1.63;;;1.10;99.90;;;;;;4974503;28;20141;-71
2023/03/16 02:12:53;;;;;;;7.07;1.58;;;1.10;99.90;;;;;;4956644;28;20400;-71
2023/03/16 02:15:19;;;;;;;6.18;1.80;;;1.10;99.90;;;;;;4961453;28;20136;-71
2023/03/16 02:17:46;;;;;;;5.35;1.75;;;1.10;99.90;;;;;;4962797;28;20844;-71
2023/03/16 02:20:24;;;;;;;4.68;1.48;;;1.10;99.90;;;;;;4979825;28;20042;-71
2023/03/16 02:22:53;;;;;;;6.32;1.27;;;1.10;99.90;;;;;;4987511;28;20542;-71
2023/03/16 02:25:23;;;;;;;6.65;1.67;;;1.10;99.90;;;;;;4952870;28;20463;-71
2023/03/16 02:27:52;;;;;;;4.85;1.50;;;1.10;99.90;;;;;;4964514;28;20077;-71
2023/03/16 02:30:18;;;;;;;8.25;1.85;;;1.00;99.90;;;;;;4961627;28;20046;-71
2023/03/16 02:32:45;;;;;;;5.53;1.60;;;1.00;99.90;;;;;;4973827;28;20061;-71
2023/03/16 02:35:11;;;;;;;6.93;2.05;;;1.00;99.90;;;;;;4967966;28;20046;-71
2023/03/16 02:37:38;;;;;;;8.07;2.00;;;1.00;99.90;;;;;;4936187;28;20046;-71
2023/03/16 02:40:21;;;;;;;6.43;1.60;;;1.00;99.90;;;;;;4974504;28;20053;-71
2023/03/16 02:42:53;;;;;;;4.10;1.33;;;1.00;99.90;;;;;;4996270;28;20053;-71
2023/03/16 02:45:20;;;;;;;6.72;2.00;;;1.00;99.90;;;;;;4958364;28;20050;-71
2023/03/16 02:47:46;;;;;;;6.53;1.70;;;1.00;99.90;;;;;;4965739;28;20058;-71
2023/03/16 02:50:11;;;;;;;9.60;1.80;;;1.00;99.90;;;;;;4952179;28;20050;-71
2023/03/16 02:52:37;;;;;;;5.63;1.60;;;1.00;99.90;;;;;;4953979;28;20128;-71
2023/03/16 02:55:04;;;;;;;5.25;1.30;;;0.90;99.90;;;;;;4965505;28;20169;-71
2023/03/16 02:57:30;;;;;;;4.97;1.48;;;0.90;99.90;;;;;;4964188;28;20044;-71
2023/03/16 02:59:56;;;;;;;5.90;1.50;;;0.90;99.90;;;;;;4950733;28;20047;-71
2023/03/16 03:02:22;;;;;;;5.25;1.63;;;0.90;99.90;;;;;;4952078;28;20051;-71
2023/03/16 03:04:48;;;;;;;3.67;1.35;;;0.80;99.90;;;;;;4988912;28;20497;-71
2023/03/16 03:07:14;;;;;;;7.60;1.58;;;0.70;99.90;;;;;;4962993;28;20069;-71
2023/03/16 03:09:43;;;;;;;7.43;1.90;;;0.70;99.90;;;;;;4990189;28;20043;-71
2023/03/16 03:12:09;;;;;;;7.32;2.00;;;0.80;99.90;;;;;;4960372;28;20047;-71
2023/03/16 03:14:38;;;;;;;4.95;1.90;;;0.80;99.90;;;;;;4953492;28;20680;-71
2023/03/16 03:17:06;;;;;;;6.20;1.75;;;0.80;99.90;;;;;;4968545;28;20042;-70
2023/03/16 03:19:35;;;;;;;6.30;1.67;;;0.80;99.90;;;;;;4946215;28;20318;-71
2023/03/16 03:22:05;;;;;;;6.90;1.52;;;0.80;99.90;;;;;;4984809;28;20050;-71
2023/03/16 03:24:32;;;;;;;3.55;1.35;;;0.80;99.90;;;;;;4951201;28;20487;-71
2023/03/16 03:26:59;;;;;;;8.13;1.85;;;0.80;99.90;;;;;;4968139;28;20054;-71
2023/03/16 03:29:33;;;;;;;4.60;1.35;;;0.80;99.90;;;;;;4974020;28;20132;-71
2023/03/16 03:32:02;;;;;;;5.82;1.50;;;0.70;99.90;;;;;;4959680;28;20058;-71
2023/03/16 03:34:29;;;;;;;8.27;1.63;;;0.80;99.90;;;;;;4945290;28;20217;-71
2023/03/16 03:36:54;;;;;;;5.15;1.95;;;0.80;99.90;;;;;;4963345;28;20196;-70
2023/03/16 03:39:20;;;;;;;8.15;1.60;;;0.70;99.90;;;;;;4971427;28;20124;-71
2023/03/16 03:41:46;;;;;;;11.40;3.95;;;0.70;99.90;;;;;;4945324;28;20043;-71
2023/03/16 03:44:12;;;;;;;7.78;1.40;;;0.80;99.90;;;;;;4990751;28;20077;-71
2023/03/16 03:46:37;;;;;;;9.73;1.63;;;0.80;99.90;;;;;;4972707;28;20538;-71
2023/03/16 03:49:04;;;;;;;5.63;1.50;;;0.70;99.90;;;;;;4950423;28;20430;-71
2023/03/16 03:51:33;;;;;;;6.15;1.80;;;0.80;99.90;;;;;;4970502;28;20046;-70
2023/03/16 03:53:58;;;;;;;6.90;1.50;;;0.80;99.90;;;;;;4961038;28;20053;-71
2023/03/16 03:56:24;;;;;;;5.95;1.52;;;0.80;99.90;;;;;;4987197;28;20143;-71
2023/03/16 03:58:50;;;;;;;6.82;1.50;;;0.80;99.90;;;;;;4969598;28;20408;-71
2023/03/16 04:01:19;;;;;;;3.42;1.60;;;0.70;99.90;;;;;;4944680;28;20536;-71
2023/03/16 04:03:44;;;;;;;5.18;1.83;;;0.70;99.90;;;;;;4989654;28;20057;-71
2023/03/16 04:06:10;;;;;;;7.03;1.92;;;0.80;99.90;;;;;;4980464;28;20046;-71
2023/03/16 04:08:36;;;;;;;5.70;1.50;;;0.70;99.90;;;;;;4960629;28;20058;-71
2023/03/16 04:11:02;;;;;;;4.75;1.35;;;0.70;99.90;;;;;;4978798;28;20357;-71
2023/03/16 04:13:27;;;;;;;5.32;1.58;;;0.60;99.90;;;;;;4970460;28;20104;-71
2023/03/16 04:15:57;;;;;;;9.32;1.70;;;0.60;99.90;;;;;;4976731;28;20151;-71
2023/03/16 04:18:23;;;;;;;4.78;1.60;;;0.50;99.90;;;;;;4960474;28;20128;-71
2023/03/16 04:20:49;;;;;;;6.85;1.40;;;0.50;99.90;;;;;;4964787;28;20490;-71
2023/03/16 04:23:15;;;;;;;8.70;2.20;;;0.50;99.90;;;;;;4971570;28;20129;-71
2023/03/16 04:25:41;;;;;;;5.82;1.70;;;0.50;99.90;;;;;;4963543;28;20514;-71
2023/03/16 04:28:07;;;;;;;5.82;1.38;;;0.60;99.90;;;;;;4948134;28;20054;-71
2023/03/16 04:30:33;;;;;;;6.07;2.08;;;0.60;99.90;;;;;;4979680;28;20564;-71
2023/03/16 04:32:59;;;;;;;4.80;1.48;;;0.50;99.90;;;;;;4949451;28;20058;-71
2023/03/16 04:35:25;;;;;;;6.88;1.65;;;0.40;99.90;;;;;;4974287;28;20182;-71
2023/03/16 04:37:51;;;;;;;10.90;1.42;;;0.60;99.90;;;;;;4969314;28;20142;-71
2023/03/16 04:40:18;;;;;;;6.07;1.40;;;0.60;99.90;;;;;;4966481;28;20605;-71
2023/03/16 04:42:44;;;;;;;6.97;1.65;;;0.60;99.90;;;;;;4949456;28;20153;-71
2023/03/16 04:45:10;;;;;;;5.75;1.70;;;0.60;99.90;;;;;;4965324;28;20357;-70
2023/03/16 04:47:36;;;;;;;5.30;1.83;;;0.60;99.90;;;;;;4959104;28;20051;-71
2023/03/16 04:50:02;;;;;;;6.22;1.75;;;0.60;99.90;;;;;;4964065;28;20490;-71
2023/03/16 04:52:29;;;;;;;4.95;1.35;;;0.60;99.90;;;;;;4965968;28;20174;-71
2023/03/16 04:54:55;;;;;;;5.30;1.40;;;0.50;99.90;;;;;;4986900;28;20122;-71
2023/03/16 04:57:21;;;;;;;10.60;1.85;;;0.60;99.90;;;;;;4968116;28;20034;-71
2023/03/16 04:59:47;;;;;;;6.22;1.60;;;0.50;99.90;;;;;;4969864;28;20050;-71
2023/03/16 05:02:13;;;;;;;5.13;1.58;;;0.60;99.90;;;;;;4965150;28;20046;-71
2023/03/16 05:04:39;;;;;;;5.07;1.25;;;0.50;99.90;;;;;;4972751;28;20050;-71
2023/03/16 05:07:04;;;;;;;4.10;1.42;;;0.50;99.90;;;;;;4948247;28;20054;-71
2023/03/16 05:09:30;;;;;;;6.95;1.95;;;0.50;99.90;;;;;;4974757;28;20686;-71
2023/03/16 05:11:56;;;;;;;8.73;1.90;;;0.50;99.90;;;;;;4961159;28;20034;-71
2023/03/16 05:14:22;;;;;;;5.00;1.50;;;0.50;99.90;;;;;;4991545;28;20042;-71
2023/03/16 05:16:48;;;;;;;8.13;2.15;;;0.50;99.90;;;;;;4991437;28;20376;-71
2023/03/16 05:19:13;;;;;;;5.53;1.90;;;0.50;99.90;;;;;;4960067;28;20053;-71
2023/03/16 05:21:39;;;;;;;6.00;1.33;;;0.50;99.90;;;;;;4985432;28;20129;-71
2023/03/16 05:24:05;;;;;;;7.32;1.63;;;0.40;99.90;;;;;;4984095;28;20079;-70
2023/03/16 05:26:31;;;;;;;9.05;1.60;;;0.40;99.90;;;;;;4980071;28;20427;-71
2023/03/16 05:28:57;;;;;;;9.77;1.50;;;0.30;99.90;;;;;;4968680;28;20388;-71
2023/03/16 05:31:25;;;;;;;4.00;1.90;;;0.40;99.90;;;;;;4951825;28;20078;-72
2023/03/16 05:33:52;;;;;;;3.70;1.27;;;0.40;99.90;;;;;;4965697;28;20544;-70
2023/03/16 05:36:19;;;;;;;2.42;0.90;;;0.60;99.90;;;;;;4985514;28;20420;-70
2023/03/16 05:38:46;;;;;;;4.45;1.25;;;0.60;99.90;;;;;;4978293;28;20108;-70
2023/03/16 05:41:13;;;;;;;3.92;1.70;;;0.70;99.90;;;;;;4985190;28;20038;-71
2023/03/16 05:43:39;;;;;;;5.38;1.33;;;0.70;99.90;;;;;;4991269;28;20042;-71
2023/03/16 05:46:05;;;;;;;4.18;1.20;;;0.80;99.90;;;;;;4967675;28;20050;-71
2023/03/16 05:48:30;;;;;;;7.47;1.15;;;0.90;99.90;;;;;;4962333;28;20042;-71
2023/03/16 05:50:56;;;;;;;4.65;1.40;;;0.70;99.90;;;;;;4979062;28;20668;-71
2023/03/16 05:53:27;;;;;;;4.18;1.27;;;0.80;99.90;;;;;;4960424;28;20117;-71
2023/03/16 05:55:53;;;;;;;8.40;1.35;;;0.80;99.90;;;;;;4970447;28;20062;-71
2023/03/16 05:58:19;;;;;;;5.72;1.60;;;0.70;99.90;;;;;;4960849;28;20051;-72
2023/03/16 06:00:44;;;;;;;5.60;1.30;;;0.70;99.90;;;;;;4962261;28;20050;-71
2023/03/16 06:03:10;;;;;;;5.07;1.40;;;0.70;99.90;;;;;;4954551;28;20109;-71
2023/03/16 06:05:36;;;;;;;3.83;1.20;;;0.80;99.90;;;;;;4954978;28;20054;-70
2023/03/16 06:08:01;;;;;;;8.60;1.65;;;0.80;99.90;;;;;;4973112;28;20058;-72
2023/03/16 06:10:27;;;;;;;3.90;1.23;;;0.90;99.90;;;;;;4956376;28;20061;-72
2023/03/16 06:12:53;;;;;;;4.05;1.20;;;0.80;99.90;;;;;;4965418;28;20481;-72
2023/03/16 06:15:19;;;;;;;5.43;1.33;;;0.80;99.90;;;;;;4952275;28;20518;-72
2023/03/16 06:17:44;;;;;;;7.72;1.77;;;0.80;99.90;;;;;;4943702;28;20079;-72
2023/03/16 06:20:11;;;;;;;6.22;1.45;;;0.80;99.90;;;;;;4971071;28;20046;-73
2023/03/16 06:22:38;;;;;;;5.10;1.35;;;0.90;99.90;;;;;;4984732;28;20046;-72
2023/03/16 06:25:04;;;;;;;5.55;2.08;;;0.90;99.90;;;;;;4968987;28;20494;-72
2023/03/16 06:27:30;;;;;;;7.00;1.70;;;1.00;99.90;;;;;;4961199;28;20050;-72
2023/03/16 06:29:56;;;;;;;7.05;1.50;;;1.10;99.90;;;;;;4966900;28;20062;-72
2023/03/16 06:32:21;;;;;;;3.80;1.50;;;1.00;99.90;;;;;;4930636;28;20050;-72
2023/03/16 06:34:47;;;;;;;2.75;1.13;;;1.00;99.90;;;;;;4983159;28;20062;-73
2023/03/16 06:37:13;;;;;;;4.47;1.38;;;1.10;99.90;;;;;;4977459;28;20078;-73
2023/03/16 06:39:39;;;;;;;3.83;1.70;;;1.20;99.90;;;;;;4978963;28;20225;-73
2023/03/16 06:42:05;;;;;;;5.97;1.30;;;1.20;99.90;;;;;;4963903;28;20100;-73
2023/03/16 06:44:31;;;;;;;4.80;1.75;;;1.20;99.90;;;;;;4981139;28;20042;-73
2023/03/16 06:46:57;;;;;;;7.55;1.70;;;1.30;99.90;;;;;;4963399;28;20050;-73
2023/03/16 06:49:23;;;;;;;3.75;1.48;;;1.60;99.90;;;;;;4948478;28;20059;-72
2023/03/16 06:51:48;;;;;;;3.47;1.20;;;1.70;99.90;;;;;;4978349;28;20368;-72
2023/03/16 06:54:14;;;;;;;5.88;1.77;;;1.70;99.90;;;;;;4984607;28;20391;-73
2023/03/16 06:56:40;;;;;;;3.40;1.17;;;1.80;99.90;;;;;;4962154;28;20532;-72
2023/03/16 06:59:06;;;;;;;4.05;1.13;;;2.00;99.90;;;;;;4968249;28;20161;-72
2023/03/16 07:01:32;;;;;;;2.58;1.42;;;2.10;99.90;;;;;;4963645;28;20043;-73
2023/03/16 07:03:57;;;;;;;4.80;1.55;;;2.10;99.90;;;;;;4984496;28;20352;-73
2023/03/16 07:06:23;;;;;;;5.00;1.38;;;2.30;99.90;;;;;;4968491;28;20053;-73
2023/03/16 07:08:50;;;;;;;5.80;1.27;;;2.50;99.90;;;;;;4970156;28;20043;-73
2023/03/16 07:11:16;;;;;;;4.43;1.58;;;2.60;99.90;;;;;;4980507;28;20459;-72
2023/03/16 07:13:43;;;;;;;4.63;1.58;;;2.70;99.90;;;;;;4960963;28;20100;-71
2023/03/16 07:16:08;;;;;;;3.40;1.23;;;2.70;99.90;;;;;;4947923;28;20039;-71
2023/03/16 07:18:36;;;;;;;7.30;1.83;;;2.70;99.90;;;;;;4944634;28;20553;-72
2023/03/16 07:21:02;;;;;;;13.13;3.85;;;2.70;99.90;;;;;;4957752;28;20125;-72
2023/03/16 07:23:28;;;;;;;5.55;1.90;;;2.80;99.90;;;;;;4966546;28;20047;-72
2023/03/16 07:25:54;;;;;;;10.10;2.10;;;2.80;99.90;;;;;;4965303;28;20689;-72
2023/03/16 07:28:20;;;;;;;6.63;1.48;;;2.90;99.90;;;;;;4966027;28;20050;-73
2023/03/16 07:30:46;;;;;;;8.50;1.45;;;3.00;99.90;;;;;;4945770;28;20136;-72
2023/03/16 07:33:12;;;;;;;5.80;1.70;;;3.10;99.90;;;;;;4965123;28;20371;-72
2023/03/16 07:35:37;;;;;;;8.88;2.05;;;3.20;99.90;;;;;;4950465;28;20042;-72
2023/03/16 07:38:03;;;;;;;7.40;2.15;;;3.20;99.90;;;;;;4987013;28;20578;-72
2023/03/16 07:40:29;;;;;;;7.18;1.80;;;3.20;99.90;;;;;;4953743;28;20051;-72
2023/03/16 07:42:55;;;;;;;5.53;1.02;;;3.40;99.90;;;;;;4948685;28;20050;-72
2023/03/16 07:45:21;;;;;;;7.63;1.92;;;3.40;99.90;;;;;;4967998;28;20089;-72
2023/03/16 07:47:47;;;;;;;5.22;1.27;;;3.50;99.90;;;;;;4935378;28;20165;-72
2023/03/16 07:50:15;;;;;;;4.80;1.20;;;3.60;99.90;;;;;;4985905;28;20050;-72
2023/03/16 07:52:41;;;;;;;4.82;1.13;;;3.60;99.90;;;;;;4954140;28;20121;-72
2023/03/16 07:55:07;;;;;;;7.80;1.85;;;3.60;99.90;;;;;;4952088;28;20042;-73
2023/03/16 07:57:33;;;;;;;7.35;1.30;;;3.60;99.90;;;;;;4972758;28;20078;-72
2023/03/16 07:59:59;;;;;;;7.75;1.58;;;3.70;99.90;;;;;;4974654;28;20088;-72
2023/03/16 08:02:25;;;;;;;6.75;2.13;;;3.70;99.90;;;;;;4947026;28;20046;-72
2023/03/16 08:04:50;;;;;;;7.65;1.63;;;3.60;99.90;;;;;;4952867;28;20046;-72
2023/03/16 08:07:16;;;;;;;5.43;1.60;;;3.60;99.90;;;;;;4952516;28;20046;-72
2023/03/16 08:09:42;;;;;;;4.63;1.80;;;3.60;99.90;;;;;;4967802;28;20054;-73
2023/03/16 08:12:08;;;;;;;9.52;1.60;;;3.60;99.90;;;;;;4955696;28;20468;-72
2023/03/16 08:14:35;;;;;;;8.10;1.48;;;3.70;99.90;;;;;;4984503;28;20114;-72
2023/03/16 08:17:02;;;;;;;4.38;1.65;;;3.90;99.90;;;;;;4954973;28;20475;-72
2023/03/16 08:19:28;;;;;;;4.93;1.52;;;3.90;99.90;;;;;;4952200;28;20049;-72
2023/03/16 08:21:53;;;;;;;4.60;1.25;;;3.90;99.90;;;;;;4968272;28;20046;-72
2023/03/16 08:24:19;;;;;;;5.97;1.50;;;4.00;99.90;;;;;;4991611;28;20074;-72
2023/03/16 08:26:45;;;;;;;5.85;1.65;;;4.00;99.10;;;;;;4978343;28;20415;-73
2023/03/16 08:29:11;;;;;;;5.18;1.52;;;4.10;98.50;;;;;;4970296;28;20116;-72
2023/03/16 08:31:37;;;;;;;3.92;1.27;;;4.20;97.40;;;;;;4988198;28;20129;-72
2023/03/16 08:34:03;;;;;;;4.88;1.70;;;4.30;96.20;;;;;;4938333;28;20444;-72
2023/03/16 08:36:29;;;;;;;11.40;1.73;;;4.40;95.90;;;;;;4971240;28;20050;-72
2023/03/16 08:38:55;;;;;;;4.55;1.20;;;4.50;96.60;;;;;;4967001;28;20054;-73
2023/03/16 08:41:21;;;;;;;9.07;1.88;;;4.70;94.50;;;;;;4939088;28;20046;-72
2023/03/16 08:43:47;;;;;;;6.75;1.50;;;4.70;94.60;;;;;;4951928;28;20050;-72
2023/03/16 08:46:12;;;;;;;4.82;1.25;;;4.80;94.50;;;;;;4967645;28;20552;-72
2023/03/16 08:48:40;;;;;;;4.00;1.33;;;5.00;92.10;;;;;;4954001;28;20046;-72
2023/03/16 08:51:08;;;;;;;6.13;1.63;;;5.10;90.70;;;;;;4948801;28;20085;-72
2023/03/16 08:53:34;;;;;;;2.20;1.00;;;5.20;87.70;;;;;;4962976;28;20524;-72
2023/03/16 08:56:07;;;;;;;3.35;1.08;;;5.30;89.40;;;;;;4980181;28;20057;-72
2023/03/16 08:58:33;;;;;;;5.80;1.58;;;5.40;86.70;;;;;;4967701;28;20050;-72
2023/03/16 09:01:00;;;;;;;2.65;0.98;;;5.50;81.70;;;;;;4938756;28;20046;-72
2023/03/16 09:03:26;;;;;;;7.55;1.55;;;5.60;83.30;;;;;;4957618;28;20057;-73
2023/03/16 09:05:52;;;;;;;5.03;1.33;;;5.60;81.80;;;;;;4971553;28;20428;-72
2023/03/16 09:08:18;;;;;;;4.43;1.58;;;5.80;83.10;;;;;;4965941;28;20084;-72
2023/03/16 09:10:44;;;;;;;3.88;1.30;;;5.90;85.70;;;;;;4948174;28;20157;-72
2023/03/16 09:13:10;;;;;;;4.55;1.40;;;6.10;85.70;;;;;;4979356;28;20078;-72
2023/03/16 09:15:37;;;;;;;7.55;1.42;;;6.10;82.30;;;;;;4972712;28;20046;-72
2023/03/16 09:18:04;;;;;;;8.52;1.40;;;6.10;81.40;;;;;;4935614;28;20100;-73
2023/03/16 09:20:30;;;;;;;4.70;1.05;;;6.10;84.50;;;;;;4967251;28;20058;-73
2023/03/16 09:22:56;;;;;;;5.60;1.30;;;6.20;84.10;;;;;;4962707;28;20050;-72
2023/03/16 09:25:23;;;;;;;6.32;1.30;;;6.30;84.10;;;;;;4967314;28;20058;-72
2023/03/16 09:27:49;;;;;;;7.18;1.55;;;6.30;76.50;;;;;;4946528;28;20058;-72
2023/03/16 09:30:15;;;;;;;6.30;1.50;;;6.20;77.60;;;;;;4986058;28;20054;-73
2023/03/16 09:32:41;;;;;;;3.75;1.33;;;6.20;80.50;;;;;;4988138;28;20124;-72
2023/03/16 09:35:07;;;;;;;5.95;1.45;;;6.30;79.70;;;;;;4955694;28;20051;-72
2023/03/16 09:37:33;;;;;;;4.47;1.00;;;6.40;83.00;;;;;;4984982;28;20076;-72
2023/03/16 09:39:59;;;;;;;7.55;2.13;;;6.50;79.70;;;;;;4964216;28;20141;-72
2023/03/16 09:42:28;;;;;;;4.65;1.20;;;6.50;75.80;;;;;;4966935;28;20078;-72
2023/03/16 09:45:04;;;;;;;5.00;1.35;;;6.50;80.40;;;;;;4978543;28;20066;-72
2023/03/16 09:47:31;;;;;;;7.05;1.40;;;6.60;80.40;;;;;;4966172;28;20053;-73
2023/03/16 09:49:58;;;;;;;7.75;1.55;;;6.60;82.60;;;;;;4983167;28;20108;-73
2023/03/16 09:52:47;;;;;;;3.97;1.30;;;6.80;81.70;;;;;;4989430;28;20531;-73
2023/03/16 09:55:32;;;;;;;4.00;1.38;;;6.90;80.70;;;;;;4981201;28;20038;-72
2023/03/16 09:57:58;;;;;;;6.78;1.30;;;7.00;78.10;;;;;;4968496;28;20063;-72
2023/03/16 10:00:26;;;;;;;5.60;1.17;;;7.00;75.60;;;;;;4979599;28;20069;-72
2023/03/16 10:02:52;;;;;;;3.42;1.10;;;7.00;72.60;;;;;;4960631;28;20072;-72
2023/03/16 10:05:20;;;;;;;4.53;1.60;;;7.20;69.70;;;;;;4987404;28;20046;-72
2023/03/16 10:07:58;;;;;;;4.43;1.13;;;7.30;67.30;;;;;;4973451;28;20379;-72
2023/03/16 10:11:01;;;;;;;4.47;1.00;;;7.50;66.00;;;;;;4982614;28;20109;-73
2023/03/16 10:13:36;;;;;;;4.32;0.90;;;7.50;63.40;;;;;;4984522;28;20038;-72
2023/03/16 10:16:12;;;;;;;3.70;1.10;;;7.60;60.30;;;;;;4977677;28;20045;-72
2023/03/16 10:18:42;;;;;;;5.78;0.90;;;7.70;60.90;;;;;;4962883;28;20387;-73
2023/03/16 10:21:13;;;;;;;2.78;0.75;;;7.70;56.60;;;;;;4979869;28;20105;-73
2023/03/16 10:23:38;;;;;;;3.00;1.05;;;7.80;56.20;;;;;;4956862;28;20054;-72
2023/03/16 10:26:11;;;;;;;2.70;0.73;;;8.10;55.40;;;;;;4954056;28;20181;-72
2023/03/16 10:28:37;;;;;;;2.65;1.10;;;8.20;53.20;;;;;;4983124;28;20125;-72
2023/03/16 10:31:03;;;;;;;5.75;0.95;;;8.10;54.20;;;;;;4984902;28;20141;-72
2023/03/16 10:33:32;;;;;;;4.40;0.82;;;8.10;52.50;;;;;;4970443;28;20462;-72
2023/03/16 10:36:02;;;;;;;4.75;1.00;;;8.10;51.30;;;;;;4979547;28;20046;-72
2023/03/16 10:38:56;;;;;;;3.22;0.88;;;8.20;52.40;;;;;;4988661;28;20045;-73
2023/03/16 10:41:36;;;;;;;3.35;0.75;;;8.40;51.80;;;;;;4987109;28;20057;-72
2023/03/16 10:44:08;;;;;;;4.10;1.02;;;8.30;51.10;;;;;;4963195;28;20047;-72
2023/03/16 10:46:38;;;;;;;4.13;1.15;;;8.50;53.30;;;;;;4972772;28;20112;-72
2023/03/16 10:49:04;;;;;;;3.83;1.23;;;8.60;51.80;;;;;;4963991;28;20050;-72
2023/03/16 10:51:35;;;;;;;2.50;0.60;;;8.70;48.80;;;;;;4951454;28;20117;-72
2023/03/16 10:54:13;;;;;;;3.60;1.00;;;8.70;48.70;;;;;;4973053;28;20042;-72
2023/03/16 10:56:39;;;;;;;5.50;0.70;;;8.80;47.80;;;;;;4961629;28;20079;-73
2023/03/16 10:59:14;;;;;;;3.92;0.90;;;9.00;46.00;;;;;;4982417;28;20357;-73
2023/03/16 11:01:44;;;;;;;5.22;1.10;;;9.00;47.70;;;;;;4968002;28;20460;-72
2023/03/16 11:04:12;;;;;;;2.72;0.95;;;9.20;46.50;;;;;;4967144;28;20042;-72
2023/03/16 11:06:50;;;;;;;2.35;0.60;;;9.50;46.30;;;;;;4972731;28;20038;-73
2023/03/16 11:09:24;;;;;;;4.38;1.10;;;10.60;45.80;;;;;;4948925;28;20046;-73
2023/03/16 11:11:50;;;;;;;5.40;0.80;;;10.90;45.40;;;;;;4940584;28;20132;-73
2023/03/16 11:14:19;;;;;;;4.72;1.35;;;12.00;40.80;;;;;;4965367;28;20122;-73
2023/03/16 11:17:01;;;;;;;4.65;1.08;;;14.20;39.50;;;;;;4963286;28;20175;-74
2023/03/16 11:19:31;;;;;;;2.13;0.75;;;15.60;33.90;;;;;;4986004;28;20104;-73
2023/03/16 11:22:16;;;;;;;4.85;1.10;;;17.40;31.80;;;;;;4972358;28;20348;-73
2023/03/16 11:24:48;;;;;;;2.85;1.00;;;17.00;32.20;;;;;;4988926;28;20379;-74
2023/03/16 11:27:43;;;;;;;5.05;0.93;;;15.70;33.30;;;;;;4978060;28;20042;-74
2023/03/16 11:30:16;;;;;;;1.83;0.85;;;16.10;33.30;;;;;;4961994;28;20050;-73
2023/03/16 11:32:46;;;;;;;2.80;0.80;;;15.30;32.50;;;;;;4988790;28;20085;-74
2023/03/16 11:35:13;;;;;;;2.97;0.90;;;14.80;33.70;;;;;;4951886;28;20050;-73
2023/03/16 11:38:14;;;;;;;3.90;0.90;;;13.10;36.60;;;;;;4975685;28;20510;-73
2023/03/16 11:40:42;;;;;;;2.22;0.88;;;12.40;37.60;;;;;;4963786;28;20061;-73
2023/03/16 11:43:40;;;;;;;2.88;1.13;;;11.60;38.40;;;;;;4967947;28;20436;-73
2023/03/16 11:46:06;;;;;;;5.95;1.30;;;11.70;39.00;;;;;;4981866;28;20061;-73
2023/03/16 11:48:44;;;;;;;3.25;0.98;;;11.90;39.70;;;;;;4982247;28;20035;-72
2023/03/16 11:51:33;;;;;;;4.93;1.05;;;11.60;38.60;;;;;;4983444;28;20098;-73
2023/03/16 11:54:36;;;;;;;1.63;0.80;;;11.50;38.80;;;;;;4967536;28;20050;-73
2023/03/16 11:57:21;;;;;;;4.80;0.90;;;10.80;38.90;;;;;;4959265;28;20495;-72
2023/03/16 12:00:24;;;;;;;4.55;0.98;;;10.70;39.40;;;;;;4951637;28;20058;-73
2023/03/16 12:02:54;;;;;;;2.97;0.88;;;10.50;39.10;;;;;;4956517;28;20074;-72
2023/03/16 12:05:22;;;;;;;2.17;0.70;;;10.50;39.60;;;;;;4972097;28;20042;-72
2023/03/16 12:08:26;;;;;;;3.63;1.00;;;10.60;39.40;;;;;;4992743;28;20057;-72
2023/03/16 12:11:03;;;;;;;2.75;0.65;;;10.80;38.80;;;;;;4982807;28;20050;-73
2023/03/16 12:13:35;;;;;;;3.75;1.23;;;11.10;38.70;;;;;;4987337;28;20459;-72
2023/03/16 12:16:12;;;;;;;2.45;0.80;;;11.20;40.40;;;;;;4985597;28;20043;-72
2023/03/16 12:18:47;;;;;;;3.53;0.77;;;11.40;38.80;;;;;;4962411;28;20209;-72
2023/03/16 12:21:18;;;;;;;2.13;0.60;;;11.30;40.00;;;;;;4974250;28;20046;-72
2023/03/16 12:23:51;;;;;;;3.17;0.88;;;11.70;37.30;;;;;;4932097;28;20248;-73
2023/03/16 12:26:18;;;;;;;2.83;0.90;;;11.50;37.00;;;;;;4986161;28;20578;-72
2023/03/16 12:28:44;;;;;;;3.88;0.88;;;11.80;37.90;;;;;;4969467;28;20145;-73
2023/03/16 12:31:14;;;;;;;2.80;1.00;;;12.00;37.00;;;;;;4965270;28;20133;-72
2023/03/16 12:34:00;;;;;;;3.60;0.80;;;11.50;37.10;;;;;;4955401;28;20058;-72
2023/03/16 12:36:45;;;;;;;4.22;1.10;;;11.70;36.80;;;;;;4972915;28;20046;-72
2023/03/16 12:39:13;;;;;;;3.50;1.10;;;13.40;34.90;;;;;;4980011;28;20043;-72
2023/03/16 12:41:47;;;;;;;2.38;0.80;;;13.10;35.60;;;;;;4969353;28;20058;-72
2023/03/16 12:44:23;;;;;;;2.80;0.90;;;13.10;35.70;;;;;;4951435;28;20440;-73
2023/03/16 12:47:07;;;;;;;7.20;4.55;;;13.20;36.00;;;;;;4959066;28;20046;-73
2023/03/16 12:49:33;;;;;;;4.70;1.15;;;12.60;35.50;;;;;;4988876;28;20046;-73
2023/03/16 12:52:00;;;;;;;3.05;0.80;;;12.70;36.20;;;;;;4940532;28;20038;-72
2023/03/16 12:54:26;;;;;;;3.50;1.40;;;15.10;34.90;;;;;;4947390;28;20043;-72
2023/03/16 12:56:59;;;;;;;2.42;1.00;;;17.20;33.00;;;;;;4957155;28;20051;-72
2023/03/16 12:59:24;;;;;;;2.72;1.23;;;17.40;30.70;;;;;;4965913;28;20502;-72
2023/03/16 13:01:57;;;;;;;4.10;1.10;;;17.10;31.70;;;;;;4950773;28;20584;-72
2023/03/16 13:04:30;;;;;;;2.60;1.27;;;15.60;32.40;;;;;;4973669;28;20089;-72